sensor_id;sensor_type;location;lat;lon;timestamp;temperature;humidity
17346;DHT22;8790;53.590;10.002;2023-02-28T00:01:52;5.30;99.90
17346;DHT22;8790;53.590;10.002;2023-02-28T00:04:25;5.30;99.90
17346;DHT22;8790;53.590;10.002;2023-02-28T00:06:57;5.30;99.90
17346;DHT22;8790;53.590;10.002;2023-02-28T00:09:29;5.30;99.90
17346;DHT22;8790;53.590;10.002;2023-02-28T00:12:01;5.20;99.90
17346;DHT22;8790;53.590;10.002;2023-02-28T00:14:40;5.20;99.90
17346;DHT22;8790;53.590;10.002;2023-02-28T00:17:12;5.20;99.90
17346;DHT22;8790;53.590;10.002;2023-02-28T00:19:45;5.10;99.90
17346;DHT22;8790;53.590;10.002;2023-02-28T00:22:16;5.10;99.90
17346;DHT22;8790;53.590;10.002;2023-02-28T00:24:48;5.10;99.90
17346;DHT22;8790;53.590;10.002;2023-02-28T00:27:20;5.00;99.90
17346;DHT22;8790;53.590;10.002;2023-02-28T00:29:52;5.10;99.90
17346;DHT22;8790;53.590;10.002;2023-02-28T00:32:24;5.10;99.90
17346;DHT22;8790;53.590;10.002;2023-02-28T00:34:57;5.00;99.90
17346;DHT22;8790;53.590;10.002;2023-02-28T00:37:29;5.00;99.90
17346;DHT22;8790;53.590;10.002;2023-02-28T00:40:01;5.00;99.90
17346;DHT22;8790;53.590;10.002;2023-02-28T00:42:35;5.00;99.90
17346;DHT22;8790;53.590;10.002;2023-02-28T00:45:08;5.00;99.90
17346;DHT22;8790;53.590;10.002;2023-02-28T00:47:42;5.00;99.90
17346;DHT22;8790;53.590;10.002;2023-02-28T00:50:15;4.90;99.90
17346;DHT22;8790;53.590;10.002;2023-02-28T00:52:47;5.00;99.90
17346;DHT22;8790;53.590;10.002;2023-02-28T00:55:19;5.00;99.90
17346;DHT22;8790;53.590;10.002;2023-02-28T00:57:52;4.90;99.90
17346;DHT22;8790;53.590;10.002;2023-02-28T01:00:24;5.00;99.90
17346;DHT22;8790;53.590;10.002;2023-02-28T01:02:55;4.90;99.90
17346;DHT22;8790;53.590;10.002;2023-02-28T01:05:29;4.90;99.90
17346;DHT22;8790;53.590;10.002;2023-02-28T01:08:01;4.90;99.90
17346;DHT22;8790;53.590;10.002;2023-02-28T01:10:32;4.80;99.90
17346;DHT22;8790;53.590;10.002;2023-02-28T01:13:07;4.80;99.90
17346;DHT22;8790;53.590;10.002;2023-02-28T01:15:45;4.70;99.90
17346;DHT22;8790;53.590;10.002;2023-02-28T01:18:17;4.70;99.90
17346;DHT22;8790;53.590;10.002;2023-02-28T01:20:52;4.70;99.90
17346;DHT22;8790;53.590;10.002;2023-02-28T01:23:24;4.70;99.90
17346;DHT22;8790;53.590;10.002;2023-02-28T01:25:56;4.60;99.90
17346;DHT22;8790;53.590;10.002;2023-02-28T01:28:27;4.60;99.90
17346;DHT22;8790;53.590;10.002;2023-02-28T01:31:01;4.70;99.90
17346;DHT22;8790;53.590;10.002;2023-02-28T01:33:33;4.70;99.90
17346;DHT22;8790;53.590;10.002;2023-02-28T01:36:09;4.60;99.90
17346;DHT22;8790;53.590;10.002;2023-02-28T01:38:42;4.60;99.90
17346;DHT22;8790;53.590;10.002;2023-02-28T01:41:17;4.60;99.90
17346;DHT22;8790;53.590;10.002;2023-02-28T01:43:56;4.60;99.90
17346;DHT22;8790;53.590;10.002;2023-02-28T01:46:29;4.60;99.90
17346;DHT22;8790;53.590;10.002;2023-02-28T01:49:07;4.60;99.90
17346;DHT22;8790;53.590;10.002;2023-02-28T01:51:43;4.60;99.90
17346;DHT22;8790;53.590;10.002;2023-02-28T01:54:20;4.60;99.90
17346;DHT22;8790;53.590;10.002;2023-02-28T01:56:55;4.60;99.90
17346;DHT22;8790;53.590;10.002;2023-02-28T01:59:34;4.60;99.90
17346;DHT22;8790;53.590;10.002;2023-02-28T02:02:08;4.60;99.90
17346;DHT22;8790;53.590;10.002;2023-02-28T02:04:43;4.60;99.90
17346;DHT22;8790;53.590;10.002;2023-02-28T02:07:19;4.60;99.90
17346;DHT22;8790;53.590;10.002;2023-02-28T02:10:10;4.60;99.90
17346;DHT22;8790;53.590;10.002;2023-02-28T02:13:01;4.60;99.90
17346;DHT22;8790;53.590;10.002;2023-02-28T02:15:40;4.60;99.90
17346;DHT22;8790;53.590;10.002;2023-02-28T02:18:21;4.60;99.90
17346;DHT22;8790;53.590;10.002;2023-02-28T02:21:16;4.60;99.90
17346;DHT22;8790;53.590;10.002;2023-02-28T02:24:20;4.60;99.90
17346;DHT22;8790;53.590;10.002;2023-02-28T02:27:17;4.50;99.90
17346;DHT22;8790;53.590;10.002;2023-02-28T02:33:29;4.50;99.90
17346;DHT22;8790;53.590;10.002;2023-02-28T02:36:11;4.50;99.90
17346;DHT22;8790;53.590;10.002;2023-02-28T02:38:47;4.50;99.90
17346;DHT22;8790;53.590;10.002;2023-02-28T02:41:26;4.60;99.90
17346;DHT22;8790;53.590;10.002;2023-02-28T02:44:03;4.60;99.90
17346;DHT22;8790;53.590;10.002;2023-02-28T02:46:42;4.40;99.90
17346;DHT22;8790;53.590;10.002;2023-02-28T02:49:19;4.50;99.90
17346;DHT22;8790;53.590;10.002;2023-02-28T02:51:54;4.40;99.90
17346;DHT22;8790;53.590;10.002;2023-02-28T02:54:28;4.30;99.90
17346;DHT22;8790;53.590;10.002;2023-02-28T02:57:04;4.30;99.90
17346;DHT22;8790;53.590;10.002;2023-02-28T02:59:40;4.30;99.90
17346;DHT22;8790;53.590;10.002;2023-02-28T03:02:14;4.30;99.90
17346;DHT22;8790;53.590;10.002;2023-02-28T03:04:51;4.30;99.90
17346;DHT22;8790;53.590;10.002;2023-02-28T03:07:27;4.20;99.90
17346;DHT22;8790;53.590;10.002;2023-02-28T03:09:58;4.20;99.90
17346;DHT22;8790;53.590;10.002;2023-02-28T03:12:36;4.10;99.90
17346;DHT22;8790;53.590;10.002;2023-02-28T03:15:17;4.10;99.90
17346;DHT22;8790;53.590;10.002;2023-02-28T03:18:01;4.10;99.90
17346;DHT22;8790;53.590;10.002;2023-02-28T03:20:38;4.10;99.90
17346;DHT22;8790;53.590;10.002;2023-02-28T03:23:18;4.00;99.90
17346;DHT22;8790;53.590;10.002;2023-02-28T03:25:56;4.00;99.90
17346;DHT22;8790;53.590;10.002;2023-02-28T03:28:32;4.00;99.90
17346;DHT22;8790;53.590;10.002;2023-02-28T03:31:10;3.90;99.90
17346;DHT22;8790;53.590;10.002;2023-02-28T03:33:46;3.80;99.90
17346;DHT22;8790;53.590;10.002;2023-02-28T03:36:27;3.80;99.90
17346;DHT22;8790;53.590;10.002;2023-02-28T03:39:04;3.70;99.90
17346;DHT22;8790;53.590;10.002;2023-02-28T03:41:41;3.70;99.90
17346;DHT22;8790;53.590;10.002;2023-02-28T03:44:17;3.70;99.90
17346;DHT22;8790;53.590;10.002;2023-02-28T03:46:56;3.80;99.90
17346;DHT22;8790;53.590;10.002;2023-02-28T03:49:31;3.80;99.90
17346;DHT22;8790;53.590;10.002;2023-02-28T03:52:06;3.80;99.90
17346;DHT22;8790;53.590;10.002;2023-02-28T03:54:43;3.70;99.90
17346;DHT22;8790;53.590;10.002;2023-02-28T03:57:22;3.70;99.90
17346;DHT22;8790;53.590;10.002;2023-02-28T04:00:00;3.60;99.90
17346;DHT22;8790;53.590;10.002;2023-02-28T04:02:43;3.60;99.90
17346;DHT22;8790;53.590;10.002;2023-02-28T04:05:15;3.50;99.90
17346;DHT22;8790;53.590;10.002;2023-02-28T04:07:47;3.40;99.90
17346;DHT22;8790;53.590;10.002;2023-02-28T04:10:20;3.40;99.90
17346;DHT22;8790;53.590;10.002;2023-02-28T04:12:52;3.40;99.90
17346;DHT22;8790;53.590;10.002;2023-02-28T04:15:24;3.40;99.90
17346;DHT22;8790;53.590;10.002;2023-02-28T04:17:57;3.30;99.90
17346;DHT22;8790;53.590;10.002;2023-02-28T04:20:29;3.30;99.90
17346;DHT22;8790;53.590;10.002;2023-02-28T04:23:01;3.30;99.90
17346;DHT22;8790;53.590;10.002;2023-02-28T04:25:36;3.30;99.90
17346;DHT22;8790;53.590;10.002;2023-02-28T04:28:10;3.20;99.90
17346;DHT22;8790;53.590;10.002;2023-02-28T04:30:42;3.20;99.90
17346;DHT22;8790;53.590;10.002;2023-02-28T04:33:14;3.20;99.90
17346;DHT22;8790;53.590;10.002;2023-02-28T04:35:45;3.20;99.90
17346;DHT22;8790;53.590;10.002;2023-02-28T04:38:17;3.10;99.90
17346;DHT22;8790;53.590;10.002;2023-02-28T04:40:50;3.10;99.90
17346;DHT22;8790;53.590;10.002;2023-02-28T04:43:22;3.00;99.90
17346;DHT22;8790;53.590;10.002;2023-02-28T04:45:54;3.00;99.90
17346;DHT22;8790;53.590;10.002;2023-02-28T04:48:28;2.90;99.90
17346;DHT22;8790;53.590;10.002;2023-02-28T04:51:01;2.90;99.90
17346;DHT22;8790;53.590;10.002;2023-02-28T04:53:34;2.80;99.90
17346;DHT22;8790;53.590;10.002;2023-02-28T04:56:08;2.70;99.90
17346;DHT22;8790;53.590;10.002;2023-02-28T04:58:41;2.70;99.90
17346;DHT22;8790;53.590;10.002;2023-02-28T05:01:19;2.70;99.90
17346;DHT22;8790;53.590;10.002;2023-02-28T05:03:53;2.60;99.90
17346;DHT22;8790;53.590;10.002;2023-02-28T05:06:27;2.60;99.90
17346;DHT22;8790;53.590;10.002;2023-02-28T05:08:59;2.60;99.90
17346;DHT22;8790;53.590;10.002;2023-02-28T05:11:34;2.50;99.90
17346;DHT22;8790;53.590;10.002;2023-02-28T05:14:09;2.50;99.90
17346;DHT22;8790;53.590;10.002;2023-02-28T05:16:42;2.40;99.90
17346;DHT22;8790;53.590;10.002;2023-02-28T05:19:14;2.40;99.90
17346;DHT22;8790;53.590;10.002;2023-02-28T05:21:50;2.30;99.90
17346;DHT22;8790;53.590;10.002;2023-02-28T05:24:22;2.30;99.90
17346;DHT22;8790;53.590;10.002;2023-02-28T05:26:55;2.30;99.90
17346;DHT22;8790;53.590;10.002;2023-02-28T05:29:27;2.20;99.90
17346;DHT22;8790;53.590;10.002;2023-02-28T05:31:59;2.20;99.90
17346;DHT22;8790;53.590;10.002;2023-02-28T05:34:31;2.20;99.90
17346;DHT22;8790;53.590;10.002;2023-02-28T05:37:02;2.20;99.90
17346;DHT22;8790;53.590;10.002;2023-02-28T05:39:34;2.30;99.90
17346;DHT22;8790;53.590;10.002;2023-02-28T05:42:08;2.40;99.90
17346;DHT22;8790;53.590;10.002;2023-02-28T05:44:40;2.50;99.90
17346;DHT22;8790;53.590;10.002;2023-02-28T05:47:12;2.40;99.90
17346;DHT22;8790;53.590;10.002;2023-02-28T05:49:45;2.40;99.90
17346;DHT22;8790;53.590;10.002;2023-02-28T05:52:17;2.30;99.90
17346;DHT22;8790;53.590;10.002;2023-02-28T05:54:49;2.30;99.90
17346;DHT22;8790;53.590;10.002;2023-02-28T05:57:22;2.30;99.90
17346;DHT22;8790;53.590;10.002;2023-02-28T05:59:54;2.30;99.90
17346;DHT22;8790;53.590;10.002;2023-02-28T06:02:26;2.20;99.90
17346;DHT22;8790;53.590;10.002;2023-02-28T06:04:58;2.20;99.90
17346;DHT22;8790;53.590;10.002;2023-02-28T06:07:30;2.20;99.90
17346;DHT22;8790;53.590;10.002;2023-02-28T06:10:02;2.20;99.90
17346;DHT22;8790;53.590;10.002;2023-02-28T06:12:35;2.20;99.90
17346;DHT22;8790;53.590;10.002;2023-02-28T06:15:09;2.10;99.90
17346;DHT22;8790;53.590;10.002;2023-02-28T06:17:43;2.10;99.90
17346;DHT22;8790;53.590;10.002;2023-02-28T06:20:16;2.10;99.90
17346;DHT22;8790;53.590;10.002;2023-02-28T06:22:47;2.10;99.90
17346;DHT22;8790;53.590;10.002;2023-02-28T06:25:21;2.10;99.90
17346;DHT22;8790;53.590;10.002;2023-02-28T06:27:54;2.10;99.90
17346;DHT22;8790;53.590;10.002;2023-02-28T06:30:26;2.00;99.90
17346;DHT22;8790;53.590;10.002;2023-02-28T06:33:01;2.10;99.90
17346;DHT22;8790;53.590;10.002;2023-02-28T06:35:33;2.00;99.90
17346;DHT22;8790;53.590;10.002;2023-02-28T06:38:04;2.00;99.90
17346;DHT22;8790;53.590;10.002;2023-02-28T06:40:36;2.00;99.90
17346;DHT22;8790;53.590;10.002;2023-02-28T06:43:09;2.00;99.90
17346;DHT22;8790;53.590;10.002;2023-02-28T06:45:43;2.00;99.90
17346;DHT22;8790;53.590;10.002;2023-02-28T06:48:16;2.00;99.90
17346;DHT22;8790;53.590;10.002;2023-02-28T06:50:49;2.00;99.90
17346;DHT22;8790;53.590;10.002;2023-02-28T06:53:21;2.00;99.90
17346;DHT22;8790;53.590;10.002;2023-02-28T06:55:53;2.00;99.90
17346;DHT22;8790;53.590;10.002;2023-02-28T06:58:26;2.10;99.90
17346;DHT22;8790;53.590;10.002;2023-02-28T07:00:58;2.00;99.90
17346;DHT22;8790;53.590;10.002;2023-02-28T07:03:29;2.10;99.90
17346;DHT22;8790;53.590;10.002;2023-02-28T07:06:01;2.10;99.90
17346;DHT22;8790;53.590;10.002;2023-02-28T07:08:34;2.30;99.90
17346;DHT22;8790;53.590;10.002;2023-02-28T07:11:06;2.30;99.90
17346;DHT22;8790;53.590;10.002;2023-02-28T07:13:39;2.30;99.90
17346;DHT22;8790;53.590;10.002;2023-02-28T07:16:11;2.20;99.90
17346;DHT22;8790;53.590;10.002;2023-02-28T07:18:43;2.30;99.90
17346;DHT22;8790;53.590;10.002;2023-02-28T07:21:15;2.30;99.90
17346;DHT22;8790;53.590;10.002;2023-02-28T07:23:47;2.40;99.90
17346;DHT22;8790;53.590;10.002;2023-02-28T07:26:20;2.50;99.90
17346;DHT22;8790;53.590;10.002;2023-02-28T07:28:53;2.60;99.90
17346;DHT22;8790;53.590;10.002;2023-02-28T07:31:25;2.60;99.90
17346;DHT22;8790;53.590;10.002;2023-02-28T07:33:57;2.70;99.90
17346;DHT22;8790;53.590;10.002;2023-02-28T07:36:28;2.80;99.90
17346;DHT22;8790;53.590;10.002;2023-02-28T07:39:00;2.80;99.90
17346;DHT22;8790;53.590;10.002;2023-02-28T07:41:32;2.80;99.90
17346;DHT22;8790;53.590;10.002;2023-02-28T07:44:05;2.80;99.90
17346;DHT22;8790;53.590;10.002;2023-02-28T07:46:37;2.90;99.90
17346;DHT22;8790;53.590;10.002;2023-02-28T07:49:09;2.90;99.90
17346;DHT22;8790;53.590;10.002;2023-02-28T07:51:41;3.00;99.90
17346;DHT22;8790;53.590;10.002;2023-02-28T07:54:13;3.10;99.90
17346;DHT22;8790;53.590;10.002;2023-02-28T07:56:44;3.10;99.90
17346;DHT22;8790;53.590;10.002;2023-02-28T07:59:17;3.20;99.90
17346;DHT22;8790;53.590;10.002;2023-02-28T08:01:50;3.30;99.90
17346;DHT22;8790;53.590;10.002;2023-02-28T08:04:21;3.40;99.90
17346;DHT22;8790;53.590;10.002;2023-02-28T08:06:53;3.40;99.90
17346;DHT22;8790;53.590;10.002;2023-02-28T08:09:26;3.40;99.90
17346;DHT22;8790;53.590;10.002;2023-02-28T08:12:00;3.50;99.90
17346;DHT22;8790;53.590;10.002;2023-02-28T08:14:33;3.50;99.90
17346;DHT22;8790;53.590;10.002;2023-02-28T08:17:05;3.60;99.90
17346;DHT22;8790;53.590;10.002;2023-02-28T08:19:37;3.70;99.90
17346;DHT22;8790;53.590;10.002;2023-02-28T08:22:09;3.70;99.90
17346;DHT22;8790;53.590;10.002;2023-02-28T08:24:41;3.90;99.90
17346;DHT22;8790;53.590;10.002;2023-02-28T08:27:13;4.00;99.90
17346;DHT22;8790;53.590;10.002;2023-02-28T08:29:46;4.10;99.90
17346;DHT22;8790;53.590;10.002;2023-02-28T08:32:18;4.10;99.90
17346;DHT22;8790;53.590;10.002;2023-02-28T08:34:49;4.20;99.90
17346;DHT22;8790;53.590;10.002;2023-02-28T08:37:21;4.30;99.90
17346;DHT22;8790;53.590;10.002;2023-02-28T08:39:53;4.30;99.90
17346;DHT22;8790;53.590;10.002;2023-02-28T08:42:25;4.30;99.90
17346;DHT22;8790;53.590;10.002;2023-02-28T08:44:58;4.40;99.90
17346;DHT22;8790;53.590;10.002;2023-02-28T08:47:29;4.40;99.90
17346;DHT22;8790;53.590;10.002;2023-02-28T08:50:01;4.50;99.90
17346;DHT22;8790;53.590;10.002;2023-02-28T08:52:33;4.60;99.90
17346;DHT22;8790;53.590;10.002;2023-02-28T08:55:05;4.70;99.90
17346;DHT22;8790;53.590;10.002;2023-02-28T08:57:37;4.80;99.90
17346;DHT22;8790;53.590;10.002;2023-02-28T09:00:11;4.80;99.90
17346;DHT22;8790;53.590;10.002;2023-02-28T09:02:43;4.80;99.90
17346;DHT22;8790;53.590;10.002;2023-02-28T09:05:15;4.80;99.90
17346;DHT22;8790;53.590;10.002;2023-02-28T09:07:47;4.90;99.90
17346;DHT22;8790;53.590;10.002;2023-02-28T09:10:19;5.00;99.90
17346;DHT22;8790;53.590;10.002;2023-02-28T09:12:51;5.10;99.90
17346;DHT22;8790;53.590;10.002;2023-02-28T09:15:24;5.20;99.90
17346;DHT22;8790;53.590;10.002;2023-02-28T09:17:56;5.20;99.90
17346;DHT22;8790;53.590;10.002;2023-02-28T09:20:28;5.20;99.90
17346;DHT22;8790;53.590;10.002;2023-02-28T09:23:00;5.30;99.90
17346;DHT22;8790;53.590;10.002;2023-02-28T09:25:31;5.30;99.90
17346;DHT22;8790;53.590;10.002;2023-02-28T09:28:04;5.40;99.90
17346;DHT22;8790;53.590;10.002;2023-02-28T09:30:37;5.50;99.90
17346;DHT22;8790;53.590;10.002;2023-02-28T09:33:08;5.50;99.90
17346;DHT22;8790;53.590;10.002;2023-02-28T09:35:40;5.50;99.90
17346;DHT22;8790;53.590;10.002;2023-02-28T09:38:13;5.60;99.90
17346;DHT22;8790;53.590;10.002;2023-02-28T09:40:49;5.60;99.90
17346;DHT22;8790;53.590;10.002;2023-02-28T09:43:25;5.70;99.90
17346;DHT22;8790;53.590;10.002;2023-02-28T09:46:05;5.60;99.90
17346;DHT22;8790;53.590;10.002;2023-02-28T09:48:44;5.70;99.90
17346;DHT22;8790;53.590;10.002;2023-02-28T09:54:17;5.80;99.90
17346;DHT22;8790;53.590;10.002;2023-02-28T09:56:51;5.80;99.90
17346;DHT22;8790;53.590;10.002;2023-02-28T09:59:35;5.90;99.90
17346;DHT22;8790;53.590;10.002;2023-02-28T10:02:21;5.90;99.90
17346;DHT22;8790;53.590;10.002;2023-02-28T10:04:59;6.10;99.90
17346;DHT22;8790;53.590;10.002;2023-02-28T10:07:45;6.10;99.90
17346;DHT22;8790;53.590;10.002;2023-02-28T10:10:24;6.20;99.90
17346;DHT22;8790;53.590;10.002;2023-02-28T10:13:00;6.20;99.90
17346;DHT22;8790;53.590;10.002;2023-02-28T10:15:34;6.20;99.90
17346;DHT22;8790;53.590;10.002;2023-02-28T10:18:12;6.20;99.90
17346;DHT22;8790;53.590;10.002;2023-02-28T10:20:45;6.20;99.90
17346;DHT22;8790;53.590;10.002;2023-02-28T10:23:20;6.30;99.90
17346;DHT22;8790;53.590;10.002;2023-02-28T10:25:57;6.30;99.90
17346;DHT22;8790;53.590;10.002;2023-02-28T10:28:30;6.30;99.90
17346;DHT22;8790;53.590;10.002;2023-02-28T10:31:03;6.30;99.90
17346;DHT22;8790;53.590;10.002;2023-02-28T10:33:36;6.40;99.90
17346;DHT22;8790;53.590;10.002;2023-02-28T10:36:14;6.40;99.90
17346;DHT22;8790;53.590;10.002;2023-02-28T10:38:47;6.50;99.90
17346;DHT22;8790;53.590;10.002;2023-02-28T10:41:28;6.60;99.90
17346;DHT22;8790;53.590;10.002;2023-02-28T10:44:16;6.50;99.90
17346;DHT22;8790;53.590;10.002;2023-02-28T10:46:50;6.50;99.90
17346;DHT22;8790;53.590;10.002;2023-02-28T10:49:26;6.60;99.90
17346;DHT22;8790;53.590;10.002;2023-02-28T10:52:00;6.60;99.90
17346;DHT22;8790;53.590;10.002;2023-02-28T10:54:33;6.60;99.90
17346;DHT22;8790;53.590;10.002;2023-02-28T10:57:07;6.70;99.90
17346;DHT22;8790;53.590;10.002;2023-02-28T10:59:40;6.70;99.90
17346;DHT22;8790;53.590;10.002;2023-02-28T11:02:34;6.70;99.90
17346;DHT22;8790;53.590;10.002;2023-02-28T11:05:28;6.80;99.90
17346;DHT22;8790;53.590;10.002;2023-02-28T11:08:05;6.90;99.90
17346;DHT22;8790;53.590;10.002;2023-02-28T11:10:38;7.00;99.90
17346;DHT22;8790;53.590;10.002;2023-02-28T11:13:16;7.10;99.90
17346;DHT22;8790;53.590;10.002;2023-02-28T11:15:52;7.20;99.90
17346;DHT22;8790;53.590;10.002;2023-02-28T11:18:28;7.20;99.90
17346;DHT22;8790;53.590;10.002;2023-02-28T11:21:02;7.40;99.90
17346;DHT22;8790;53.590;10.002;2023-02-28T11:23:36;7.50;99.70
17346;DHT22;8790;53.590;10.002;2023-02-28T11:26:08;7.60;99.40
17346;DHT22;8790;53.590;10.002;2023-02-28T11:28:42;7.70;98.50
17346;DHT22;8790;53.590;10.002;2023-02-28T11:31:17;7.80;98.70
17346;DHT22;8790;53.590;10.002;2023-02-28T11:33:51;8.00;98.80
17346;DHT22;8790;53.590;10.002;2023-02-28T11:36:26;8.30;98.60
17346;DHT22;8790;53.590;10.002;2023-02-28T11:39:00;9.10;96.90
17346;DHT22;8790;53.590;10.002;2023-02-28T11:41:52;9.50;96.70
17346;DHT22;8790;53.590;10.002;2023-02-28T11:44:34;9.10;95.80
17346;DHT22;8790;53.590;10.002;2023-02-28T11:47:14;8.90;95.90
17346;DHT22;8790;53.590;10.002;2023-02-28T11:49:52;9.10;96.40
17346;DHT22;8790;53.590;10.002;2023-02-28T11:52:43;8.90;95.50
17346;DHT22;8790;53.590;10.002;2023-02-28T11:55:20;8.80;95.60
17346;DHT22;8790;53.590;10.002;2023-02-28T11:58:17;9.00;95.70
17346;DHT22;8790;53.590;10.002;2023-02-28T12:01:05;9.10;95.40
17346;DHT22;8790;53.590;10.002;2023-02-28T12:03:46;9.20;95.40
17346;DHT22;8790;53.590;10.002;2023-02-28T12:06:24;9.40;95.20
17346;DHT22;8790;53.590;10.002;2023-02-28T12:09:20;9.50;94.70
17346;DHT22;8790;53.590;10.002;2023-02-28T12:12:03;9.50;93.90
17346;DHT22;8790;53.590;10.002;2023-02-28T12:14:57;9.70;94.00
17346;DHT22;8790;53.590;10.002;2023-02-28T12:17:42;9.90;93.40
17346;DHT22;8790;53.590;10.002;2023-02-28T12:20:24;9.90;93.10
17346;DHT22;8790;53.590;10.002;2023-02-28T12:23:13;9.70;93.10
17346;DHT22;8790;53.590;10.002;2023-02-28T12:25:58;10.20;93.50
17346;DHT22;8790;53.590;10.002;2023-02-28T12:28:35;10.50;92.40
17346;DHT22;8790;53.590;10.002;2023-02-28T12:31:11;10.80;91.80
17346;DHT22;8790;53.590;10.002;2023-02-28T12:33:48;10.80;91.60
17346;DHT22;8790;53.590;10.002;2023-02-28T12:36:22;10.90;91.40
17346;DHT22;8790;53.590;10.002;2023-02-28T12:39:00;11.00;91.70
17346;DHT22;8790;53.590;10.002;2023-02-28T12:41:38;11.10;91.30
17346;DHT22;8790;53.590;10.002;2023-02-28T12:44:14;11.30;90.90
17346;DHT22;8790;53.590;10.002;2023-02-28T12:46:49;11.30;90.60
17346;DHT22;8790;53.590;10.002;2023-02-28T12:49:27;11.60;90.10
17346;DHT22;8790;53.590;10.002;2023-02-28T12:52:03;11.60;90.10
17346;DHT22;8790;53.590;10.002;2023-02-28T12:54:40;11.60;90.40
17346;DHT22;8790;53.590;10.002;2023-02-28T12:57:22;11.40;88.30
17346;DHT22;8790;53.590;10.002;2023-02-28T12:59:58;11.20;90.00
17346;DHT22;8790;53.590;10.002;2023-02-28T13:02:59;11.30;89.70
17346;DHT22;8790;53.590;10.002;2023-02-28T13:06:03;11.10;89.00
17346;DHT22;8790;53.590;10.002;2023-02-28T13:09:01;10.90;89.70
17346;DHT22;8790;53.590;10.002;2023-02-28T13:11:40;10.80;89.00
17346;DHT22;8790;53.590;10.002;2023-02-28T13:14:22;10.70;89.60
17346;DHT22;8790;53.590;10.002;2023-02-28T13:17:00;10.40;90.20
17346;DHT22;8790;53.590;10.002;2023-02-28T13:19:35;10.20;90.40
17346;DHT22;8790;53.590;10.002;2023-02-28T13:22:17;10.00;90.40
17346;DHT22;8790;53.590;10.002;2023-02-28T13:24:51;9.90;90.50
17346;DHT22;8790;53.590;10.002;2023-02-28T13:27:34;9.70;90.50
17346;DHT22;8790;53.590;10.002;2023-02-28T13:33:26;9.60;90.40
17346;DHT22;8790;53.590;10.002;2023-02-28T13:36:22;9.60;90.70
17346;DHT22;8790;53.590;10.002;2023-02-28T13:38:55;9.50;91.00
17346;DHT22;8790;53.590;10.002;2023-02-28T13:41:44;9.30;91.10
17346;DHT22;8790;53.590;10.002;2023-02-28T13:44:18;9.30;91.30
17346;DHT22;8790;53.590;10.002;2023-02-28T13:47:20;9.30;91.60
17346;DHT22;8790;53.590;10.002;2023-02-28T13:49:54;9.30;91.40
17346;DHT22;8790;53.590;10.002;2023-02-28T13:52:25;9.20;91.10
17346;DHT22;8790;53.590;10.002;2023-02-28T13:55:25;9.10;91.10
17346;DHT22;8790;53.590;10.002;2023-02-28T13:58:08;9.20;90.80
17346;DHT22;8790;53.590;10.002;2023-02-28T14:00:58;9.20;91.00
17346;DHT22;8790;53.590;10.002;2023-02-28T14:03:42;9.00;91.40
17346;DHT22;8790;53.590;10.002;2023-02-28T14:06:23;9.20;91.10
17346;DHT22;8790;53.590;10.002;2023-02-28T14:08:59;9.20;91.20
17346;DHT22;8790;53.590;10.002;2023-02-28T14:11:34;9.20;91.60
17346;DHT22;8790;53.590;10.002;2023-02-28T14:14:08;9.30;91.20
17346;DHT22;8790;53.590;10.002;2023-02-28T14:16:43;9.40;91.70
17346;DHT22;8790;53.590;10.002;2023-02-28T14:19:21;9.40;91.10
17346;DHT22;8790;53.590;10.002;2023-02-28T14:22:04;9.30;91.20
17346;DHT22;8790;53.590;10.002;2023-02-28T14:25:08;9.30;91.10
17346;DHT22;8790;53.590;10.002;2023-02-28T14:27:47;9.40;91.40
17346;DHT22;8790;53.590;10.002;2023-02-28T14:33:40;9.40;91.60
17346;DHT22;8790;53.590;10.002;2023-02-28T14:36:18;9.40;91.00
17346;DHT22;8790;53.590;10.002;2023-02-28T14:38:55;9.30;91.00
17346;DHT22;8790;53.590;10.002;2023-02-28T14:41:30;9.40;91.80
17346;DHT22;8790;53.590;10.002;2023-02-28T14:44:15;9.30;92.00
17346;DHT22;8790;53.590;10.002;2023-02-28T14:46:49;9.30;91.80
17346;DHT22;8790;53.590;10.002;2023-02-28T14:49:26;9.30;92.00
17346;DHT22;8790;53.590;10.002;2023-02-28T14:52:06;9.30;92.20
17346;DHT22;8790;53.590;10.002;2023-02-28T14:54:41;9.30;92.40
17346;DHT22;8790;53.590;10.002;2023-02-28T14:57:24;9.40;92.30
17346;DHT22;8790;53.590;10.002;2023-02-28T14:59:59;9.30;92.10
17346;DHT22;8790;53.590;10.002;2023-02-28T15:02:34;9.30;91.70
17346;DHT22;8790;53.590;10.002;2023-02-28T15:05:27;9.20;92.10
17346;DHT22;8790;53.590;10.002;2023-02-28T15:08:11;9.10;92.50
17346;DHT22;8790;53.590;10.002;2023-02-28T15:10:50;9.20;92.30
17346;DHT22;8790;53.590;10.002;2023-02-28T15:13:23;9.20;92.30
17346;DHT22;8790;53.590;10.002;2023-02-28T15:15:57;9.20;91.70
17346;DHT22;8790;53.590;10.002;2023-02-28T15:18:36;9.20;92.40
17346;DHT22;8790;53.590;10.002;2023-02-28T15:21:12;9.10;91.40
17346;DHT22;8790;53.590;10.002;2023-02-28T15:23:46;9.00;92.00
17346;DHT22;8790;53.590;10.002;2023-02-28T15:26:23;9.00;91.70
17346;DHT22;8790;53.590;10.002;2023-02-28T15:28:59;9.10;91.90
17346;DHT22;8790;53.590;10.002;2023-02-28T15:31:33;9.10;91.60
17346;DHT22;8790;53.590;10.002;2023-02-28T15:34:13;9.10;91.30
17346;DHT22;8790;53.590;10.002;2023-02-28T15:36:49;9.00;91.70
17346;DHT22;8790;53.590;10.002;2023-02-28T15:39:22;9.00;92.10
17346;DHT22;8790;53.590;10.002;2023-02-28T15:42:11;9.00;91.90
17346;DHT22;8790;53.590;10.002;2023-02-28T15:44:43;8.90;91.20
17346;DHT22;8790;53.590;10.002;2023-02-28T15:47:17;8.90;91.20
17346;DHT22;8790;53.590;10.002;2023-02-28T15:49:52;8.80;91.80
17346;DHT22;8790;53.590;10.002;2023-02-28T15:52:33;8.80;91.70
17346;DHT22;8790;53.590;10.002;2023-02-28T15:55:11;8.80;91.90
17346;DHT22;8790;53.590;10.002;2023-02-28T15:57:46;8.70;91.40
17346;DHT22;8790;53.590;10.002;2023-02-28T16:00:21;8.70;91.80
17346;DHT22;8790;53.590;10.002;2023-02-28T16:02:53;8.60;91.60
17346;DHT22;8790;53.590;10.002;2023-02-28T16:05:27;8.70;92.00
17346;DHT22;8790;53.590;10.002;2023-02-28T16:08:11;8.70;92.10
17346;DHT22;8790;53.590;10.002;2023-02-28T16:10:45;8.60;92.30
17346;DHT22;8790;53.590;10.002;2023-02-28T16:13:18;8.60;92.20
17346;DHT22;8790;53.590;10.002;2023-02-28T16:15:50;8.50;91.80
17346;DHT22;8790;53.590;10.002;2023-02-28T16:18:21;8.50;91.90
17346;DHT22;8790;53.590;10.002;2023-02-28T16:20:53;8.50;91.90
17346;DHT22;8790;53.590;10.002;2023-02-28T16:23:25;8.40;92.00
17346;DHT22;8790;53.590;10.002;2023-02-28T16:25:57;8.30;92.40
17346;DHT22;8790;53.590;10.002;2023-02-28T16:28:32;8.30;92.60
17346;DHT22;8790;53.590;10.002;2023-02-28T16:31:06;8.20;92.50
17346;DHT22;8790;53.590;10.002;2023-02-28T16:33:38;8.10;92.80
17346;DHT22;8790;53.590;10.002;2023-02-28T16:36:14;8.10;92.90
17346;DHT22;8790;53.590;10.002;2023-02-28T16:38:47;8.00;93.40
17346;DHT22;8790;53.590;10.002;2023-02-28T16:41:21;7.90;94.10
17346;DHT22;8790;53.590;10.002;2023-02-28T16:43:57;7.80;94.00
17346;DHT22;8790;53.590;10.002;2023-02-28T16:46:33;7.80;93.70
17346;DHT22;8790;53.590;10.002;2023-02-28T16:49:10;7.70;94.50
17346;DHT22;8790;53.590;10.002;2023-02-28T16:51:42;7.70;94.30
17346;DHT22;8790;53.590;10.002;2023-02-28T16:54:14;7.60;95.20